Time;durP1;ratioP1;P1;durP2;ratioP2;P2;SDS_P1;SDS_P2;PMS_P1;PMS_P2;Temp;Humidity;BMP_temperature;BMP_pressure;BME280_temperature;BME280_humidity;BME280_pressure;Samples;Min_cycle;Max_cycle;Signal;HPM_P1;HPM_P2
2022/09/30 00:01:41;;;;;;;23.13;6.85;;;6.10;99.90;;;;;;5046493;28;20075;-41
2022/09/30 00:04:11;;;;;;;11.80;4.63;;;6.00;99.90;;;;;;5046822;28;20053;-41
2022/09/30 00:06:37;;;;;;;9.15;5.10;;;5.90;99.90;;;;;;5047022;28;20045;-41
2022/09/30 00:09:04;;;;;;;54.70;7.95;;;6.00;99.90;;;;;;5045747;28;20107;-41
2022/09/30 00:11:32;;;;;;;13.77;5.43;;;5.90;99.90;;;;;;5046678;28;20132;-41
2022/09/30 00:13:59;;;;;;;21.20;5.28;;;6.80;99.90;;;;;;5046697;28;20562;-41
2022/09/30 00:16:32;;;;;;;65.82;7.70;;;6.00;99.90;;;;;;5046320;28;20057;-41
2022/09/30 00:18:59;;;;;;;148.43;9.98;;;6.00;99.90;;;;;;5046573;28;20045;-42
2022/09/30 00:21:27;;;;;;;93.25;9.63;;;6.00;99.90;;;;;;5046717;28;20077;-40
2022/09/30 00:23:53;;;;;;;84.95;8.73;;;6.00;99.90;;;;;;5046874;28;20045;-41
2022/09/30 00:26:21;;;;;;;68.95;5.85;;;5.90;99.90;;;;;;5045201;28;20055;-41
2022/09/30 00:28:52;;;;;;;136.93;7.80;;;6.10;99.90;;;;;;5046609;28;20041;-42
2022/09/30 00:31:19;;;;;;;112.22;10.52;;;6.10;99.90;;;;;;5046584;28;20033;-41
2022/09/30 00:34:05;;;;;;;73.05;7.00;;;6.10;99.90;;;;;;5046503;28;20040;-41
2022/09/30 00:36:48;;;;;;;21.35;6.13;;;5.90;99.90;;;;;;5046517;28;20053;-40
2022/09/30 00:39:19;;;;;;;10.75;7.10;;;5.90;99.90;;;;;;5045109;28;20045;-40
2022/09/30 00:41:47;;;;;;;15.00;8.57;;;5.70;99.90;;;;;;5046300;28;20085;-40
2022/09/30 00:44:52;;;;;;;16.08;8.18;;;5.70;99.90;;;;;;5046652;28;20179;-40
2022/09/30 00:47:31;;;;;;;17.95;8.52;;;5.80;99.90;;;;;;5046590;28;20102;-40
2022/09/30 00:50:31;;;;;;;24.17;10.50;;;5.80;99.90;;;;;;5045898;28;20048;-40
2022/09/30 00:53:03;;;;;;;83.03;10.70;;;5.80;99.90;;;;;;5043770;28;20056;-42
2022/09/30 00:55:29;;;;;;;247.45;15.75;;;5.70;99.90;;;;;;5045704;28;20055;-41
2022/09/30 00:57:56;;;;;;;285.73;15.50;;;5.70;99.90;;;;;;5046136;28;20056;-41
2022/09/30 01:00:22;;;;;;;67.05;7.75;;;5.70;99.90;;;;;;5045871;28;20102;-41
2022/09/30 01:02:48;;;;;;;27.38;7.63;;;5.70;99.90;;;;;;5045951;28;20498;-41
2022/09/30 01:05:14;;;;;;;14.95;7.43;;;5.70;99.90;;;;;;5045821;28;20040;-40
2022/09/30 01:07:40;;;;;;;14.73;6.00;;;5.60;99.90;;;;;;5046426;28;20043;-41
2022/09/30 01:10:06;;;;;;;17.17;5.72;;;6.60;99.90;;;;;;5044453;28;20117;-41
2022/09/30 01:12:32;;;;;;;19.27;6.75;;;5.50;99.90;;;;;;5045249;28;20049;-41
2022/09/30 01:14:59;;;;;;;25.80;6.40;;;5.50;99.90;;;;;;5045350;28;20053;-41
2022/09/30 01:17:49;;;;;;;45.22;8.57;;;5.40;99.90;;;;;;5045947;28;20115;-42
2022/09/30 01:20:20;;;;;;;94.13;7.28;;;5.40;99.90;;;;;;5046096;28;20052;-40
2022/09/30 01:23:13;;;;;;;57.20;8.82;;;5.30;99.90;;;;;;5045945;28;20055;-40
2022/09/30 01:25:41;;;;;;;;;;;5.30;99.90;;;;;;5046099;28;20063;-40
2022/09/30 01:28:28;;;;;;;10.52;5.82;;;5.30;99.90;;;;;;5045713;28;19920;-41
2022/09/30 01:31:24;;;;;;;17.23;7.63;;;5.40;99.90;;;;;;5045364;28;20076;-41
2022/09/30 01:34:20;;;;;;;11.38;6.97;;;5.40;99.90;;;;;;5045771;28;20095;-41
2022/09/30 01:36:49;;;;;;;20.30;8.95;;;5.50;99.90;;;;;;5045691;28;20548;-41
2022/09/30 01:39:36;;;;;;;17.73;9.25;;;5.50;99.90;;;;;;5045533;28;20629;-41
2022/09/30 01:42:17;;;;;;;14.73;8.38;;;7.10;99.90;;;;;;5045666;28;20099;-41
2022/09/30 01:44:45;;;;;;;16.90;9.25;;;5.50;99.90;;;;;;5044933;28;20187;-40
2022/09/30 01:47:26;;;;;;;16.83;8.35;;;5.50;99.90;;;;;;5045101;28;20510;-42
2022/09/30 01:50:08;;;;;;;11.13;6.18;;;5.50;99.90;;;;;;5045287;28;20049;-41
2022/09/30 01:52:43;;;;;;;19.13;9.13;;;5.50;99.90;;;;;;5045597;28;20053;-41
2022/09/30 01:55:34;;;;;;;15.45;8.38;;;5.50;99.90;;;;;;5045878;28;20045;-41
2022/09/30 01:58:29;;;;;;;15.17;7.80;;;5.50;99.90;;;;;;5046201;28;20044;-41
2022/09/30 02:00:58;;;;;;;21.45;7.72;;;5.50;99.90;;;;;;5045626;28;20428;-41
2022/09/30 02:03:32;;;;;;;19.63;7.45;;;5.40;99.90;;;;;;5045112;28;20517;-41
2022/09/30 02:06:09;;;;;;;15.82;6.82;;;5.40;99.90;;;;;;5045520;28;20049;-41
2022/09/30 02:08:46;;;;;;;19.38;6.55;;;5.30;99.90;;;;;;5045310;28;20037;-40
2022/09/30 02:11:21;;;;;;;17.25;7.47;;;5.30;99.90;;;;;;5044991;28;20471;-41
2022/09/30 02:13:55;;;;;;;26.13;8.93;;;5.20;99.90;;;;;;5045298;28;20700;-40
2022/09/30 02:16:38;;;;;;;52.95;12.07;;;5.20;99.90;;;;;;5045115;28;20439;-40
2022/09/30 02:19:17;;;;;;;13.52;6.32;;;5.10;99.90;;;;;;5045654;28;20061;-40
2022/09/30 02:21:51;;;;;;;19.88;8.48;;;5.10;99.90;;;;;;5044854;28;20865;-42
2022/09/30 02:24:21;;;;;;;19.13;8.55;;;5.10;99.90;;;;;;5045307;28;20123;-40
2022/09/30 02:26:48;;;;;;;22.95;8.02;;;5.00;99.90;;;;;;5047426;28;20106;-40
2022/09/30 02:29:42;;;;;;;17.23;8.25;;;4.90;99.90;;;;;;5048992;28;20041;-41
2022/09/30 02:32:15;;;;;;;19.98;8.52;;;5.10;99.90;;;;;;5046409;28;20399;-42
2022/09/30 02:34:52;;;;;;;57.20;9.07;;;5.10;99.90;;;;;;5048739;28;20121;-41
2022/09/30 02:37:33;;;;;;;32.10;6.25;;;5.20;99.90;;;;;;5049139;28;20051;-41
2022/09/30 02:40:09;;;;;;;45.17;7.95;;;5.20;99.90;;;;;;5048386;28;20049;-41
2022/09/30 02:42:36;;;;;;;15.02;6.30;;;5.20;99.90;;;;;;5048621;28;20045;-42
2022/09/30 02:45:07;;;;;;;25.02;8.30;;;5.10;99.90;;;;;;5048714;28;20329;-41
2022/09/30 02:47:57;;;;;;;86.40;10.98;;;5.10;99.90;;;;;;5048201;28;20542;-41
2022/09/30 02:50:31;;;;;;;61.40;7.40;;;5.10;99.90;;;;;;5048594;28;20156;-41
2022/09/30 02:53:18;;;;;;;43.58;4.57;;;5.00;99.90;;;;;;5048390;28;20092;-41
2022/09/30 02:55:44;;;;;;;75.22;6.95;;;5.00;99.90;;;;;;5048312;28;20532;-42
2022/09/30 02:58:13;;;;;;;56.55;5.63;;;4.90;99.90;;;;;;5048276;28;20045;-41
2022/09/30 03:00:39;;;;;;;61.55;6.05;;;4.60;99.90;;;;;;5048540;28;20136;-41
2022/09/30 03:03:12;;;;;;;35.00;4.95;;;4.80;99.90;;;;;;5047964;28;20459;-42
2022/09/30 03:05:38;;;;;;;19.75;4.70;;;4.80;99.90;;;;;;5048433;28;20561;-41
2022/09/30 03:08:04;;;;;;;51.17;6.57;;;4.70;99.90;;;;;;5047803;28;20117;-40
2022/09/30 03:10:30;;;;;;;94.95;8.43;;;4.70;99.90;;;;;;5048293;28;20037;-41
2022/09/30 03:13:05;;;;;;;66.32;7.10;;;4.60;99.90;;;;;;5047571;28;20457;-41
2022/09/30 03:16:04;;;;;;;14.20;4.40;;;4.60;99.90;;;;;;5047893;28;20854;-41
2022/09/30 03:18:49;;;;;;;16.08;6.60;;;4.60;99.90;;;;;;5047738;28;20479;-41
2022/09/30 03:21:28;;;;;;;21.60;5.18;;;4.60;99.90;;;;;;5047828;28;20331;-40
2022/09/30 03:24:20;;;;;;;26.60;4.63;;;4.50;99.90;;;;;;5047692;28;20052;-41
2022/09/30 03:27:00;;;;;;;40.00;6.75;;;4.50;99.90;;;;;;5048176;28;20505;-40
2022/09/30 03:29:51;;;;;;;30.48;5.53;;;4.50;99.90;;;;;;5048867;28;20044;-41
2022/09/30 03:32:48;;;;;;;27.85;4.85;;;4.50;99.90;;;;;;5048525;28;20048;-41
2022/09/30 03:35:17;;;;;;;45.42;7.70;;;4.70;99.90;;;;;;5048440;28;20052;-41
2022/09/30 03:38:22;;;;;;;32.05;7.97;;;4.30;99.90;;;;;;5047014;28;20048;-41
2022/09/30 03:41:22;;;;;;;146.60;12.57;;;4.50;99.90;;;;;;5047529;28;20052;-41
2022/09/30 03:43:51;;;;;;;105.72;9.68;;;4.60;99.90;;;;;;5047198;28;20049;-41
2022/09/30 03:46:31;;;;;;;89.57;9.63;;;4.50;99.90;;;;;;5047350;28;20084;-41
2022/09/30 03:49:00;;;;;;;35.00;7.57;;;4.60;99.90;;;;;;5047075;28;20049;-40
2022/09/30 03:51:28;;;;;;;63.20;10.10;;;4.30;99.90;;;;;;5047082;28;20479;-39
2022/09/30 03:53:55;;;;;;;63.03;10.00;;;4.60;99.90;;;;;;5047316;28;20072;-39
2022/09/30 03:56:29;;;;;;;218.77;16.13;;;4.60;99.90;;;;;;5047451;28;20036;-40
2022/09/30 03:58:55;;;;;;;90.78;13.13;;;4.60;99.90;;;;;;5047265;28;20518;-42
2022/09/30 04:01:22;;;;;;;61.92;10.25;;;4.50;99.90;;;;;;5047208;28;20047;-42
2022/09/30 04:03:51;;;;;;;37.38;10.05;;;4.50;99.90;;;;;;5047123;28;20140;-40
2022/09/30 04:06:21;;;;;;;35.45;8.98;;;4.50;99.90;;;;;;5047060;28;20045;-44
2022/09/30 04:08:47;;;;;;;34.70;6.88;;;4.50;99.90;;;;;;5047685;28;20045;-41
2022/09/30 04:11:13;;;;;;;27.73;7.68;;;4.40;99.90;;;;;;5047044;28;20061;-41
2022/09/30 04:13:39;;;;;;;17.48;7.80;;;4.20;99.90;;;;;;5047557;28;20047;-41
2022/09/30 04:16:06;;;;;;;31.52;8.50;;;4.40;99.90;;;;;;5047143;28;20541;-41
2022/09/30 04:18:37;;;;;;;19.95;7.97;;;4.30;99.90;;;;;;5046620;28;20111;-43
2022/09/30 04:21:07;;;;;;;36.95;8.93;;;4.30;99.90;;;;;;5046630;28;20048;-40
2022/09/30 04:23:37;;;;;;;36.35;8.13;;;4.30;99.90;;;;;;5046270;28;20510;-40
2022/09/30 04:26:09;;;;;;;81.28;11.27;;;4.30;99.90;;;;;;5046276;28;20045;-40
2022/09/30 04:28:35;;;;;;;30.98;10.05;;;4.20;99.90;;;;;;5046814;28;20041;-40
2022/09/30 04:31:02;;;;;;;20.63;7.57;;;4.10;99.90;;;;;;5046303;28;20047;-40
2022/09/30 04:33:28;;;;;;;17.48;6.97;;;3.90;99.90;;;;;;5046622;28;20452;-40
2022/09/30 04:35:55;;;;;;;30.15;6.07;;;4.00;99.90;;;;;;5046436;28;20049;-41
2022/09/30 04:38:23;;;;;;;26.13;8.07;;;4.00;99.90;;;;;;5046191;28;20510;-40
2022/09/30 04:40:53;;;;;;;9.75;4.75;;;3.90;99.90;;;;;;5046050;28;20818;-41
2022/09/30 04:43:22;;;;;;;8.30;4.72;;;3.80;99.90;;;;;;5045933;28;20144;-40
2022/09/30 04:45:48;;;;;;;14.30;5.18;;;3.80;99.90;;;;;;5045996;28;20051;-40
2022/09/30 04:48:15;;;;;;;18.17;5.68;;;3.90;99.90;;;;;;5045785;28;20045;-40
2022/09/30 04:50:41;;;;;;;26.38;5.57;;;3.90;99.90;;;;;;5045570;28;20052;-39
2022/09/30 04:53:12;;;;;;;83.05;10.55;;;3.90;99.90;;;;;;5045911;28;20040;-39
2022/09/30 04:55:38;;;;;;;28.05;6.30;;;3.90;99.90;;;;;;5046150;28;20070;-40
2022/09/30 04:58:03;;;;;;;76.65;9.02;;;3.90;99.90;;;;;;5046149;28;20055;-40
2022/09/30 05:00:29;;;;;;;48.30;11.60;;;4.00;99.90;;;;;;5046182;28;20394;-40
2022/09/30 05:02:55;;;;;;;87.93;13.90;;;4.10;99.90;;;;;;5046131;28;20128;-40
2022/09/30 05:05:21;;;;;;;88.32;10.38;;;4.10;99.90;;;;;;5046086;28;20571;-40
2022/09/30 05:07:46;;;;;;;71.03;13.40;;;4.10;99.90;;;;;;5046226;28;20120;-41
2022/09/30 05:10:12;;;;;;;35.88;11.10;;;4.10;99.90;;;;;;5046223;28;20036;-41
2022/09/30 05:12:44;;;;;;;39.70;12.88;;;4.70;99.90;;;;;;5046158;28;20148;-41
2022/09/30 05:15:09;;;;;;;44.78;14.20;;;4.10;99.90;;;;;;5046596;28;20044;-41
2022/09/30 05:17:35;;;;;;;68.82;13.63;;;4.10;99.90;;;;;;5046793;28;20149;-40
2022/09/30 05:20:01;;;;;;;73.90;14.48;;;4.00;99.90;;;;;;5046551;28;20051;-40
2022/09/30 05:22:27;;;;;;;92.25;13.07;;;4.10;99.90;;;;;;5046034;28;20049;-41
2022/09/30 05:24:54;;;;;;;103.72;14.35;;;4.10;99.90;;;;;;5046297;28;20044;-40
2022/09/30 05:27:21;;;;;;;90.75;13.60;;;4.10;99.90;;;;;;5045665;28;20063;-40
2022/09/30 05:29:47;;;;;;;113.90;15.65;;;4.10;99.90;;;;;;5045839;28;20045;-40
2022/09/30 05:32:13;;;;;;;70.50;11.90;;;4.00;99.90;;;;;;5045268;28;20537;-40
2022/09/30 05:34:38;;;;;;;71.68;13.80;;;4.00;99.90;;;;;;5045725;28;20526;-40
2022/09/30 05:37:05;;;;;;;40.70;12.10;;;4.10;99.90;;;;;;5045620;28;20130;-40
2022/09/30 05:39:31;;;;;;;39.03;12.38;;;3.90;99.90;;;;;;5046109;28;20045;-40
2022/09/30 05:41:57;;;;;;;32.92;13.65;;;4.00;99.90;;;;;;5045861;28;20041;-41
2022/09/30 05:44:23;;;;;;;31.92;13.63;;;4.00;99.90;;;;;;5045408;28;20094;-41
2022/09/30 05:46:48;;;;;;;15.75;10.10;;;4.00;99.90;;;;;;5045751;28;20453;-40
2022/09/30 05:49:14;;;;;;;41.53;15.50;;;4.00;99.90;;;;;;5045696;28;20477;-40
2022/09/30 05:51:40;;;;;;;45.50;17.83;;;3.80;99.90;;;;;;5046314;28;20497;-40
2022/09/30 05:54:06;;;;;;;47.63;16.38;;;4.10;99.90;;;;;;5044341;28;20403;-40
2022/09/30 05:56:33;;;;;;;37.00;14.70;;;4.20;99.90;;;;;;5046286;28;20097;-40
2022/09/30 05:58:59;;;;;;;39.45;15.32;;;4.20;99.90;;;;;;5045853;28;20183;-40
2022/09/30 06:01:25;;;;;;;48.30;17.50;;;4.30;99.90;;;;;;5047916;28;20405;-40
2022/09/30 06:03:50;;;;;;;39.33;16.05;;;4.40;99.90;;;;;;5047835;28;20047;-40
2022/09/30 06:06:18;;;;;;;60.35;20.55;;;4.40;99.90;;;;;;5049760;28;20521;-41
2022/09/30 06:08:44;;;;;;;35.13;17.90;;;4.50;99.90;;;;;;5049654;28;20395;-40
2022/09/30 06:11:16;;;;;;;44.53;17.65;;;4.60;99.90;;;;;;5048829;28;20116;-40
2022/09/30 06:13:43;;;;;;;42.97;18.02;;;4.60;99.90;;;;;;5049064;28;20051;-40
2022/09/30 06:16:11;;;;;;;37.42;17.85;;;4.40;99.90;;;;;;5048590;28;20832;-40
2022/09/30 06:18:40;;;;;;;45.90;18.02;;;4.70;99.90;;;;;;5048896;28;20696;-40
2022/09/30 06:21:07;;;;;;;40.22;16.58;;;4.70;99.90;;;;;;5048956;28;20037;-40
2022/09/30 06:23:34;;;;;;;34.67;16.33;;;4.80;99.90;;;;;;5048823;28;20053;-40
2022/09/30 06:26:00;;;;;;;51.30;21.27;;;4.80;99.90;;;;;;5049101;28;20126;-40
2022/09/30 06:28:26;;;;;;;44.00;16.67;;;4.80;99.90;;;;;;5048269;28;20064;-40
2022/09/30 06:30:53;;;;;;;33.70;17.65;;;4.80;99.90;;;;;;5048904;28;20049;-40
2022/09/30 06:33:20;;;;;;;55.15;20.60;;;4.80;99.90;;;;;;5048583;28;20087;-40
2022/09/30 06:35:46;;;;;;;42.75;19.58;;;5.00;99.90;;;;;;5049215;28;20037;-40
2022/09/30 06:38:14;;;;;;;51.05;20.85;;;5.00;99.90;;;;;;5049377;28;20037;-40
2022/09/30 06:40:41;;;;;;;32.35;18.20;;;5.00;99.90;;;;;;5049055;28;20041;-41
2022/09/30 06:43:07;;;;;;;29.00;18.10;;;5.00;99.90;;;;;;5049122;28;20446;-41
2022/09/30 06:45:35;;;;;;;38.15;20.20;;;4.80;99.90;;;;;;5048899;28;20075;-40
2022/09/30 06:48:03;;;;;;;46.95;20.95;;;5.00;99.90;;;;;;5049202;28;20068;-39
2022/09/30 06:50:30;;;;;;;30.60;19.27;;;5.20;99.90;;;;;;5048719;28;20040;-39
2022/09/30 06:53:00;;;;;;;37.45;20.98;;;5.30;99.90;;;;;;5048565;28;20060;-39
2022/09/30 06:55:27;;;;;;;46.88;22.98;;;5.10;99.90;;;;;;5048019;28;20099;-39
2022/09/30 06:57:54;;;;;;;70.45;27.88;;;5.40;99.90;;;;;;5048135;28;20047;-40
2022/09/30 07:00:21;;;;;;;40.08;22.60;;;5.20;99.90;;;;;;5047844;28;20534;-40
2022/09/30 07:02:47;;;;;;;49.22;24.73;;;5.50;99.90;;;;;;5048462;28;20407;-41
2022/09/30 07:05:14;;;;;;;57.22;26.98;;;7.10;99.90;;;;;;5048325;28;20048;-40
2022/09/30 07:07:41;;;;;;;42.78;24.10;;;5.80;99.90;;;;;;5048745;28;20041;-40
2022/09/30 07:10:07;;;;;;;47.50;25.63;;;5.90;99.90;;;;;;5048632;28;20883;-40
2022/09/30 07:12:33;;;;;;;34.83;24.35;;;6.10;99.90;;;;;;5046804;28;20085;-40
2022/09/30 07:15:00;;;;;;;41.53;26.63;;;6.20;99.90;;;;;;5047777;28;20088;-40
2022/09/30 07:17:27;;;;;;;32.35;23.20;;;6.50;99.90;;;;;;5047849;28;20116;-40
2022/09/30 07:19:53;;;;;;;33.67;24.25;;;6.40;99.90;;;;;;5047964;28;20044;-41
2022/09/30 07:22:33;;;;;;;41.97;27.42;;;6.50;99.90;;;;;;5047244;28;20051;-42
2022/09/30 07:25:01;;;;;;;53.97;28.33;;;6.70;99.90;;;;;;5047978;28;20411;-40
2022/09/30 07:27:28;;;;;;;56.72;29.50;;;6.80;99.90;;;;;;5046368;28;20394;-40
2022/09/30 07:29:54;;;;;;;41.47;26.95;;;6.80;99.90;;;;;;5047541;28;20051;-40
2022/09/30 07:32:21;;;;;;;41.22;26.35;;;6.90;99.90;;;;;;5047392;28;20041;-40
2022/09/30 07:34:46;;;;;;;37.88;26.42;;;7.00;99.90;;;;;;5047802;28;20040;-40
2022/09/30 07:37:14;;;;;;;69.78;34.22;;;6.80;99.90;;;;;;5048250;28;20103;-40
2022/09/30 07:39:43;;;;;;;35.75;25.20;;;8.70;99.90;;;;;;5048005;28;20051;-40
2022/09/30 07:42:10;;;;;;;40.72;26.40;;;7.20;99.90;;;;;;5047574;28;20039;-40
2022/09/30 07:44:40;;;;;;;46.03;29.08;;;8.30;99.90;;;;;;5046928;28;20503;-40
2022/09/30 07:47:08;;;;;;;47.83;31.05;;;7.30;99.90;;;;;;5047708;28;20079;-40
2022/09/30 07:49:34;;;;;;;44.85;31.27;;;7.80;99.90;;;;;;5047213;28;20053;-41
2022/09/30 07:52:00;;;;;;;53.63;34.55;;;8.40;99.90;;;;;;5047619;28;20044;-41
2022/09/30 07:54:29;;;;;;;66.72;36.85;;;8.70;99.90;;;;;;5047324;28;20116;-40
2022/09/30 07:56:56;;;;;;;66.63;38.70;;;8.90;99.90;;;;;;5047585;28;20052;-40
2022/09/30 07:59:23;;;;;;;65.05;37.17;;;9.10;99.90;;;;;;5047269;28;20542;-40
2022/09/30 08:01:49;;;;;;;67.50;38.35;;;9.60;99.90;;;;;;5047593;28;20123;-40
2022/09/30 08:04:17;;;;;;;71.28;40.65;;;9.20;99.90;;;;;;5047264;28;20144;-40
2022/09/30 08:06:49;;;;;;;62.67;36.90;;;9.50;99.90;;;;;;5046702;28;20125;-40
2022/09/30 08:09:17;;;;;;;64.53;37.38;;;9.50;99.90;;;;;;5047105;28;20048;-40
2022/09/30 08:11:43;;;;;;;60.75;38.15;;;9.30;99.90;;;;;;5046348;28;20065;-39
2022/09/30 08:14:18;;;;;;;56.30;33.95;;;9.70;99.90;;;;;;5046754;28;20383;-40
2022/09/30 08:16:44;;;;;;;83.57;39.22;;;10.30;99.90;;;;;;5046665;28;20458;-40
2022/09/30 08:19:18;;;;;;;70.28;37.25;;;10.10;99.90;;;;;;5047031;28;20128;-40
2022/09/30 08:21:45;;;;;;;58.47;35.00;;;10.60;99.90;;;;;;5046698;28;20041;-41
2022/09/30 08:24:11;;;;;;;70.93;35.42;;;9.90;99.90;;;;;;5046257;28;20057;-40
2022/09/30 08:26:37;;;;;;;63.20;33.65;;;;;;;;;;5046567;28;20043;-40
2022/09/30 08:29:03;;;;;;;77.28;36.67;;;10.40;99.90;;;;;;5046568;28;20045;-40
2022/09/30 08:31:29;;;;;;;76.05;34.92;;;11.00;99.90;;;;;;5030030;28;20091;-39
2022/09/30 08:33:55;;;;;;;64.18;30.95;;;11.30;99.90;;;;;;5044402;28;20040;-40
2022/09/30 08:36:23;;;;;;;56.17;28.17;;;11.10;99.90;;;;;;5042901;28;20506;-40
2022/09/30 08:38:49;;;;;;;72.30;30.23;;;11.60;99.90;;;;;;5042458;28;20040;-39
2022/09/30 08:41:45;;;;;;;65.82;30.95;;;11.30;99.90;;;;;;5042745;28;20105;-40
2022/09/30 08:44:21;;;;;;;50.15;26.90;;;11.50;99.90;;;;;;5043219;28;20115;-40
2022/09/30 08:47:14;;;;;;;46.20;25.42;;;11.70;99.90;;;;;;5042735;28;20587;-40
2022/09/30 08:49:43;;;;;;;48.47;26.30;;;11.60;99.90;;;;;;5042764;28;20438;-39
2022/09/30 08:52:34;;;;;;;51.97;30.33;;;12.00;99.90;;;;;;5042578;28;20040;-39
2022/09/30 08:55:00;;;;;;;37.20;24.77;;;12.70;99.90;;;;;;5037462;28;20053;-39
2022/09/30 08:57:38;;;;;;;29.08;20.58;;;13.00;99.90;;;;;;5043363;28;20044;-39
2022/09/30 09:00:10;;;;;;;33.25;21.60;;;13.20;99.90;;;;;;5043337;28;20080;-39
2022/09/30 09:02:50;;;;;;;27.55;20.13;;;13.20;99.90;;;;;;5043602;28;20116;-39
2022/09/30 09:05:28;;;;;;;25.73;19.27;;;13.30;99.90;;;;;;5042982;28;20045;-40
2022/09/30 09:08:33;;;;;;;26.38;17.55;;;13.40;99.90;;;;;;5043397;28;20041;-40
2022/09/30 09:11:02;;;;;;;27.67;17.10;;;13.70;99.90;;;;;;5043420;28;20052;-40
2022/09/30 09:14:02;;;;;;;24.88;16.13;;;14.20;99.90;;;;;;5044355;28;20056;-41
2022/09/30 09:16:49;;;;;;;27.45;15.35;;;13.90;99.90;;;;;;5038507;28;20132;-37
2022/09/30 09:19:23;;;;;;;22.40;14.50;;;14.00;99.90;;;;;;5039455;28;20463;-52
2022/09/30 09:21:53;;;;;;;16.38;12.48;;;14.30;99.90;;;;;;5032718;28;20457;-38
2022/09/30 09:24:39;;;;;;;16.90;12.27;;;14.40;99.90;;;;;;5041602;28;20045;-37
2022/09/30 09:27:28;;;;;;;15.23;11.82;;;14.40;99.90;;;;;;5042746;28;20142;-37
2022/09/30 09:30:06;;;;;;;14.00;10.82;;;14.40;99.90;;;;;;5042188;28;20558;-37
2022/09/30 09:32:33;;;;;;;12.80;9.63;;;14.40;99.90;;;;;;5023165;28;20063;-35
2022/09/30 09:35:29;;;;;;;12.35;10.50;;;14.60;99.90;;;;;;5042318;28;20095;-36
2022/09/30 09:40:59;;;;;;;11.45;8.90;;;14.40;99.90;;;;;;5042598;28;20091;-35
2022/09/30 09:43:59;;;;;;;11.05;8.30;;;14.40;99.90;;;;;;5042435;28;20071;-37
2022/09/30 09:46:54;;;;;;;12.10;8.45;;;14.50;99.90;;;;;;5042343;28;20056;-36
2022/09/30 09:49:21;;;;;;;12.00;8.80;;;14.50;99.90;;;;;;5041936;28;20048;-36
2022/09/30 09:51:58;;;;;;;10.98;8.40;;;14.50;99.90;;;;;;5042105;28;20490;-36
2022/09/30 09:54:30;;;;;;;14.27;9.38;;;14.60;99.90;;;;;;5042706;28;20045;-35
2022/09/30 09:57:16;;;;;;;10.82;8.63;;;14.60;99.90;;;;;;5042255;28;20123;-36
2022/09/30 10:02:58;;;;;;;10.60;7.93;;;14.70;99.90;;;;;;5031615;28;20110;-37
2022/09/30 10:05:28;;;;;;;9.38;7.90;;;14.70;99.90;;;;;;5041918;28;20302;-37
2022/09/30 10:08:13;;;;;;;10.15;7.82;;;14.80;99.90;;;;;;5043032;28;20119;-36
2022/09/30 10:10:51;;;;;;;10.63;8.48;;;14.80;99.90;;;;;;5042000;28;20083;-36
2022/09/30 10:13:22;;;;;;;12.73;8.75;;;14.80;99.90;;;;;;5042258;28;20064;-50
2022/09/30 10:15:53;;;;;;;9.85;8.85;;;15.00;99.90;;;;;;5042185;28;20060;-45
2022/09/30 10:18:30;;;;;;;8.70;7.80;;;14.80;99.90;;;;;;5042261;28;20140;-35
2022/09/30 10:21:02;;;;;;;10.25;7.40;;;15.20;99.90;;;;;;5042018;28;20052;-35
2022/09/30 10:23:36;;;;;;;9.13;6.80;;;14.80;99.90;;;;;;5041938;28;20076;-36
2022/09/30 10:26:12;;;;;;;8.05;6.80;;;15.20;99.90;;;;;;5041832;28;20052;-35
2022/09/30 10:28:47;;;;;;;7.63;5.93;;;14.90;99.90;;;;;;5041646;28;20129;-38
2022/09/30 10:31:22;;;;;;;7.53;6.30;;;14.90;99.90;;;;;;5041741;28;20468;-41
2022/09/30 10:33:58;;;;;;;8.18;4.63;;;14.90;99.90;;;;;;5022014;28;20450;-42
2022/09/30 10:36:33;;;;;;;6.85;4.65;;;14.90;99.90;;;;;;5041808;28;20045;-38
2022/09/30 10:39:07;;;;;;;4.40;3.95;;;15.10;99.90;;;;;;5042279;28;20037;-33
2022/09/30 10:41:35;;;;;;;4.88;4.40;;;15.40;99.90;;;;;;5041613;28;20037;-33
2022/09/30 10:44:14;;;;;;;4.82;4.32;;;15.10;99.90;;;;;;5041210;28;20060;-41
2022/09/30 10:46:43;;;;;;;7.20;3.60;;;15.00;99.90;;;;;;5041669;28;20065;-41
2022/09/30 10:49:36;;;;;;;5.57;2.70;;;15.30;99.90;;;;;;5045103;28;20048;-43
2022/09/30 10:52:02;;;;;;;3.08;2.38;;;15.40;99.90;;;;;;5032449;28;20517;-49
2022/09/30 10:54:49;;;;;;;3.72;2.22;;;15.40;99.90;;;;;;5048033;28;20048;-39
2022/09/30 10:57:27;;;;;;;4.15;2.65;;;15.40;99.90;;;;;;5047106;28;20045;-39
2022/09/30 11:00:16;;;;;;;2.63;2.15;;;15.50;99.90;;;;;;5047742;28;20037;-40
2022/09/30 11:02:57;;;;;;;3.15;1.83;;;15.50;99.90;;;;;;5045894;28;20513;-38
2022/09/30 11:05:30;;;;;;;4.00;3.17;;;15.60;99.90;;;;;;5046823;28;20522;-39
2022/09/30 11:08:16;;;;;;;4.07;3.67;;;15.60;99.90;;;;;;5029021;28;20295;-38
2022/09/30 11:10:56;;;;;;;4.03;3.33;;;15.60;99.90;;;;;;5047468;28;20037;-37
2022/09/30 11:13:29;;;;;;;3.75;2.92;;;15.60;99.90;;;;;;5045229;28;20056;-40
2022/09/30 11:16:03;;;;;;;4.75;3.92;;;15.50;99.90;;;;;;5047046;28;20045;-39
2022/09/30 11:18:51;;;;;;;5.50;4.63;;;15.60;99.90;;;;;;5047037;28;20052;-37
2022/09/30 11:21:31;;;;;;;6.15;5.03;;;15.50;99.90;;;;;;5047417;28;20041;-39
2022/09/30 11:24:22;;;;;;;4.18;3.78;;;15.50;99.90;;;;;;5047072;28;20033;-39
2022/09/30 11:26:51;;;;;;;5.65;5.07;;;15.60;99.90;;;;;;5046879;28;20041;-38
2022/09/30 11:29:28;;;;;;;5.65;4.22;;;15.50;99.90;;;;;;5047083;28;20069;-39
2022/09/30 11:31:59;;;;;;;7.53;6.00;;;15.50;99.90;;;;;;5046553;28;20045;-39
2022/09/30 11:34:40;;;;;;;7.87;4.53;;;15.60;99.90;;;;;;5046598;28;20049;-38
2022/09/30 11:37:30;;;;;;;5.75;4.93;;;15.70;99.90;;;;;;5046737;28;20051;-38
2022/09/30 11:40:11;;;;;;;6.20;4.38;;;15.70;99.90;;;;;;5046545;28;20649;-39
2022/09/30 11:43:03;;;;;;;3.53;3.17;;;15.80;99.90;;;;;;5046693;28;20131;-38
2022/09/30 11:45:52;;;;;;;4.88;2.88;;;15.80;99.90;;;;;;5044690;28;20053;-38
2022/09/30 11:48:56;;;;;;;4.90;3.00;;;15.80;99.90;;;;;;5046133;28;20880;-38
2022/09/30 11:51:41;;;;;;;3.00;2.30;;;15.80;99.90;;;;;;5046542;28;20049;-38
2022/09/30 11:54:21;;;;;;;4.82;3.25;;;15.80;99.90;;;;;;5046207;28;20569;-38
2022/09/30 11:57:20;;;;;;;4.60;2.92;;;15.80;99.90;;;;;;5046365;28;20049;-39
2022/09/30 12:00:03;;;;;;;3.40;1.83;;;15.70;99.90;;;;;;5037868;28;20597;-39
2022/09/30 12:02:46;;;;;;;3.45;1.60;;;15.60;99.90;;;;;;5046263;28;20041;-39
2022/09/30 12:05:34;;;;;;;5.72;1.52;;;15.50;99.90;;;;;;5045959;28;20059;-35
2022/09/30 12:08:17;;;;;;;3.55;1.83;;;15.30;99.90;;;;;;5046084;28;20418;-35
2022/09/30 12:10:49;;;;;;;2.45;1.98;;;15.20;99.90;;;;;;5046228;28;20041;-37
2022/09/30 12:13:24;;;;;;;3.53;1.90;;;15.30;99.90;;;;;;5045856;28;20083;-40
2022/09/30 12:15:52;;;;;;;4.60;2.75;;;15.40;99.90;;;;;;5046414;28;20045;-40
2022/09/30 12:18:31;;;;;;;5.93;2.83;;;14.30;99.90;;;;;;5045782;28;20076;-40
2022/09/30 12:21:02;;;;;;;3.38;2.00;;;15.30;99.90;;;;;;5045585;28;20491;-42
2022/09/30 12:23:40;;;;;;;3.17;2.30;;;15.40;99.90;;;;;;5045858;28;20534;-41
2022/09/30 12:26:06;;;;;;;6.35;3.38;;;15.50;99.90;;;;;;5044498;28;20140;-35
2022/09/30 12:32:00;;;;;;;4.43;3.08;;;15.50;99.90;;;;;;5046165;28;20069;-37
2022/09/30 12:34:53;;;;;;;5.70;2.50;;;15.50;99.90;;;;;;5046160;28;20060;-36
2022/09/30 12:37:50;;;;;;;4.95;3.20;;;15.60;99.90;;;;;;5045809;28;20735;-32
2022/09/30 12:40:47;;;;;;;3.47;2.50;;;15.60;99.90;;;;;;5045905;28;20132;-34
2022/09/30 12:43:13;;;;;;;3.28;2.55;;;15.70;99.90;;;;;;5045535;28;20467;-34
2022/09/30 12:45:50;;;;;;;5.60;3.33;;;15.70;99.90;;;;;;5045579;28;20056;-32
2022/09/30 12:48:20;;;;;;;3.90;2.83;;;15.70;99.90;;;;;;5045535;28;20036;-41
2022/09/30 12:50:51;;;;;;;4.55;3.50;;;15.60;99.90;;;;;;5045777;28;20077;-40
2022/09/30 12:53:34;;;;;;;7.82;3.72;;;15.50;99.90;;;;;;5045704;28;20045;-41
2022/09/30 12:56:09;;;;;;;5.70;3.63;;;15.50;99.90;;;;;;5045316;28;20052;-41
2022/09/30 12:58:47;;;;;;;5.68;4.32;;;15.60;99.90;;;;;;5045625;28;20459;-37
2022/09/30 13:01:22;;;;;;;5.78;4.88;;;15.50;99.90;;;;;;5045399;28;20079;-40
2022/09/30 13:03:58;;;;;;;5.78;4.97;;;15.50;99.90;;;;;;5045798;28;20386;-40
2022/09/30 13:06:25;;;;;;;9.02;5.10;;;15.50;99.90;;;;;;5045629;28;20053;-38
2022/09/30 13:09:14;;;;;;;6.72;4.93;;;15.50;99.90;;;;;;5045632;28;20128;-35
2022/09/30 13:11:43;;;;;;;7.43;5.25;;;15.40;99.90;;;;;;5044354;28;20052;-39
2022/09/30 13:14:34;;;;;;;5.72;4.43;;;15.30;99.90;;;;;;5045428;28;20501;-39
2022/09/30 13:17:06;;;;;;;5.32;4.82;;;15.20;99.90;;;;;;5044107;28;20052;-39
2022/09/30 13:19:44;;;;;;;6.57;4.30;;;15.00;99.90;;;;;;5045074;28;20057;-38
2022/09/30 13:22:18;;;;;;;6.25;5.65;;;15.00;99.90;;;;;;5026078;28;20155;-38
2022/09/30 13:24:56;;;;;;;;;;;15.00;99.90;;;;;;5045550;28;20515;-39
2022/09/30 13:27:37;;;;;;;7.10;5.30;;;15.00;99.90;;;;;;5045474;28;19956;-39